Port Elgin, Canada
Current Conditions -  °F | °C
As of 11:00 AM on Wednesday 28 Jan 2015 (Local Time) from CYVV Reporting Station
Few Clouds Few Clouds  
Wind Chill: 18°   Ceiling: Unl
Heat Index: 18°   Visibility: 15mi
Dew Point:   Wind: 3mph
Humidity: 58%   Direction: 150°SSE
Pressure: 30.3"   Gusts: NA
Location:  44.43°N, 81.39°W
Report Text: CYVV 281600Z 15003KT 15SM FEW250 M08/M15 A3030 RMK CI2 SLP274
Loading
Personal Weather Stations






























Interactive Weather Map New forecast layout! Learn more

10-Day Weather Forecast

Advertisements
Track Severe Weather on mobile